N24OT EDFZ-EDGS
Flight info
| Callsign | N24OT |
|---|---|
| Flight time | N/A |
| Altitude | 9000 |
| Route | TABUM TABUM3A |
| Aircraft | E121/L-SDFGHRY/S |
Departure
| Time | 2026-04-11 20:17 |
|---|---|
| Airport | Mainz-Finthen Airfield (EDFZ) |
Arrival
| Time | N/A |
|---|---|
| Airport | Siegerland Airport (EDGS) |
| Time | Latitude | Longitude | Altitude | Speed | Heading |
|---|---|---|---|---|---|
| 2026-04-11 20:04 | 49.97123 | 8.14989 | 752 ft | 0 kts | 255° |
| 2026-04-11 20:11 | 49.97121 | 8.14979 | 755 ft | 3 kts | 254° |
| 2026-04-11 20:12 | 49.97111 | 8.14939 | 752 ft | 3 kts | 201° |
| 2026-04-11 20:12 | 49.97100 | 8.14957 | 752 ft | 3 kts | 101° |
| 2026-04-11 20:12 | 49.97100 | 8.14987 | 754 ft | 0 kts | 81° |
| 2026-04-11 20:12 | 49.97100 | 8.14990 | 754 ft | 2 kts | 81° |
| 2026-04-11 20:13 | 49.97108 | 8.15045 | 755 ft | 7 kts | 76° |
| 2026-04-11 20:13 | 49.97122 | 8.15129 | 755 ft | 9 kts | 73° |
| 2026-04-11 20:13 | 49.97119 | 8.15188 | 754 ft | 5 kts | 143° |
| 2026-04-11 20:13 | 49.97082 | 8.15230 | 755 ft | 8 kts | 142° |
| 2026-04-11 20:14 | 49.97065 | 8.15299 | 756 ft | 7 kts | 96° |
| 2026-04-11 20:14 | 49.97066 | 8.15327 | 755 ft | 0 kts | 75° |
| 2026-04-11 20:15 | 49.97063 | 8.15410 | 755 ft | 11 kts | 149° |
| 2026-04-11 20:15 | 49.97022 | 8.15383 | 756 ft | 7 kts | 256° |
| 2026-04-11 20:15 | 49.97013 | 8.15330 | 757 ft | 0 kts | 253° |
| 2026-04-11 20:17 | 49.97004 | 8.15277 | 757 ft | 34 kts | 255° |
| 2026-04-11 20:17 | 49.96837 | 8.14331 | 846 ft | 122 kts | 254° |
| 2026-04-11 20:17 | 49.96549 | 8.13087 | 1623 ft | 118 kts | 245° |
| 2026-04-11 20:17 | 49.96515 | 8.11924 | 2573 ft | 108 kts | 275° |
| 2026-04-11 20:18 | 49.96663 | 8.10798 | 3428 ft | 109 kts | 292° |
| 2026-04-11 20:18 | 49.97359 | 8.10333 | 4244 ft | 125 kts | 9° |
| 2026-04-11 20:18 | 49.98176 | 8.10813 | 5055 ft | 125 kts | 12° |
| 2026-04-11 20:18 | 49.99012 | 8.11205 | 5828 ft | 127 kts | 14° |
| 2026-04-11 20:19 | 49.99917 | 8.11744 | 5985 ft | 152 kts | 5° |
| 2026-04-11 20:19 | 50.00235 | 8.11089 | 5689 ft | 97 kts | 206° |